Time;durP1;ratioP1;P1;durP2;ratioP2;P2;SDS_P1;SDS_P2;PMS_P1;PMS_P2;Temp;Humidity;BMP_temperature;BMP_pressure;BME280_temperature;BME280_humidity;BME280_pressure;Samples;Min_cycle;Max_cycle;Signal;HPM_P1;HPM_P2
2023/04/30 00:01:21;;;;;;;4.97;4.57;;;;;;;16.44;67.07;99194.53;5031599;28;20193;-69
2023/04/30 00:03:49;;;;;;;4.23;3.93;;;;;;;16.43;67.34;99197.44;5024467;28;20693;-69
2023/04/30 00:06:15;;;;;;;4.90;4.47;;;;;;;16.45;67.74;99198.81;5011883;28;20618;-70
2023/04/30 00:08:42;;;;;;;6.43;4.40;;;;;;;16.46;67.25;99200.44;5011913;28;20280;-69
2023/04/30 00:11:09;;;;;;;4.90;4.60;;;;;;;16.49;67.39;99191.13;5014915;28;20658;-69
2023/04/30 00:13:35;;;;;;;5.40;4.93;;;;;;;16.52;66.96;99193.31;5019823;28;20189;-69
2023/04/30 00:16:02;;;;;;;5.30;4.77;;;;;;;16.54;66.53;99193.91;5034139;28;20189;-68
2023/04/30 00:18:29;;;;;;;5.07;4.57;;;;;;;16.55;66.68;99190.16;5035976;28;20193;-68
2023/04/30 00:20:57;;;;;;;7.03;4.77;;;;;;;16.57;66.67;99188.84;5035553;28;20680;-68
2023/04/30 00:23:24;;;;;;;10.23;4.80;;;;;;;16.57;66.89;99188.06;5035416;28;20198;-68
2023/04/30 00:25:50;;;;;;;5.87;4.37;;;;;;;16.56;67.34;99189.09;5035352;28;20220;-68
2023/04/30 00:28:17;;;;;;;5.90;4.63;;;;;;;16.49;67.30;99197.28;5034902;28;20697;-68
2023/04/30 00:30:45;;;;;;;5.40;4.63;;;;;;;16.40;67.87;99192.53;5035720;28;20229;-68
2023/04/30 00:33:12;;;;;;;5.43;4.63;;;;;;;16.34;68.31;99204.22;5035229;28;20685;-67
2023/04/30 00:35:38;;;;;;;4.70;4.40;;;;;;;16.33;69.12;99191.88;5035554;28;20623;-67
2023/04/30 00:38:06;;;;;;;7.10;5.00;;;;;;;16.32;69.43;99190.22;5035510;28;20197;-68
2023/04/30 00:40:34;;;;;;;5.50;4.80;;;;;;;16.34;70.03;99193.50;5035038;28;20193;-68
2023/04/30 00:43:01;;;;;;;4.93;4.63;;;;;;;16.34;70.30;99193.50;5034637;28;20267;-68
2023/04/30 00:45:27;;;;;;;6.23;4.70;;;;;;;16.31;70.39;99194.78;5015307;28;20631;-68
2023/04/30 00:47:55;;;;;;;6.77;4.93;;;;;;;16.33;70.20;99198.03;5015105;28;20226;-67
2023/04/30 00:50:22;;;;;;;5.57;5.00;;;;;;;16.31;69.56;99194.78;5015522;28;20282;-68
2023/04/30 00:52:49;;;;;;;5.40;4.90;;;;;;;16.27;70.02;99190.13;5015121;28;20194;-68
2023/04/30 00:55:18;;;;;;;5.40;4.90;;;;;;;16.28;70.13;99189.09;5015438;28;20198;-68
2023/04/30 00:57:45;;;;;;;7.63;5.03;;;;;;;16.29;69.88;99185.38;5015243;28;20252;-68
2023/04/30 01:00:13;;;;;;;6.00;5.40;;;;;;;16.27;69.57;99182.09;5015303;28;20194;-68
2023/04/30 01:02:40;;;;;;;10.40;5.47;;;;;;;16.26;69.20;99175.13;5015154;28;20201;-69
2023/04/30 01:05:08;;;;;;;5.33;4.80;;;;;;;16.25;68.58;99178.84;5032835;28;20574;-68
2023/04/30 01:07:37;;;;;;;5.13;4.73;;;;;;;16.24;69.13;99180.72;5034820;28;20202;-68
2023/04/30 01:10:04;;;;;;;5.50;5.00;;;;;;;16.20;69.18;99176.09;5034609;28;20200;-69
2023/04/30 01:12:38;;;;;;;5.13;4.63;;;;;;;16.18;69.88;99178.19;5034478;28;20620;-68
2023/04/30 01:15:14;;;;;;;6.27;5.77;;;;;;;16.19;70.55;99179.81;5032500;28;20196;-69
2023/04/30 01:17:48;;;;;;;5.67;4.83;;;;;;;16.20;70.50;99179.56;5034808;28;20186;-68
2023/04/30 01:20:15;;;;;;;9.33;5.47;;;;;;;16.20;70.40;99189.50;5034870;28;20185;-66
2023/04/30 01:22:50;;;;;;;5.67;5.23;;;;;;;16.07;71.08;99169.13;5033285;28;20193;-68
2023/04/30 01:25:41;;;;;;;5.70;5.20;;;;;;;16.10;70.64;99183.91;5034477;28;20691;-68
2023/04/30 01:28:13;;;;;;;6.23;5.43;;;;;;;16.02;70.58;99178.94;5034482;28;20279;-69
2023/04/30 01:30:43;;;;;;;5.87;5.47;;;;;;;15.93;71.06;99182.00;5034668;28;20201;-67
2023/04/30 01:33:10;;;;;;;5.00;4.70;;;;;;;15.88;71.11;99188.31;5034583;28;20193;-68
2023/04/30 01:36:13;;;;;;;11.70;5.53;;;;;;;15.82;71.17;99180.16;5034496;28;20271;-68
2023/04/30 01:38:56;;;;;;;5.03;4.73;;;;;;;15.79;70.49;99185.19;5034155;28;20722;-68
2023/04/30 01:41:32;;;;;;;5.20;4.73;;;;;;;15.78;70.45;99179.03;5034269;28;20189;-68
2023/04/30 01:44:12;;;;;;;8.00;5.20;;;;;;;15.75;71.10;99171.47;5026203;28;20737;-67
2023/04/30 01:46:42;;;;;;;5.70;5.30;;;;;;;15.76;71.23;99175.75;5014434;28;20192;-67
2023/04/30 01:49:19;;;;;;;7.37;5.00;;;;;;;15.76;72.11;99170.41;5014247;28;20280;-68
2023/04/30 01:51:48;;;;;;;12.10;6.07;;;;;;;15.71;71.39;99166.81;5013920;28;20724;-67
2023/04/30 01:54:19;;;;;;;9.80;5.50;;;;;;;15.56;68.28;99174.53;5014283;28;20683;-68
2023/04/30 01:56:53;;;;;;;7.73;5.07;;;;;;;15.44;69.73;99166.50;5014121;28;20268;-68
2023/04/30 01:59:23;;;;;;;8.80;5.53;;;;;;;15.45;70.95;99168.13;5013975;28;20193;-68
2023/04/30 02:01:49;;;;;;;6.40;5.33;;;;;;;15.39;72.12;99158.38;5013832;28;20198;-68
2023/04/30 02:04:16;;;;;;;6.57;5.77;;;;;;;15.36;72.53;99156.16;5025091;28;20197;-69
2023/04/30 02:06:43;;;;;;;6.43;5.67;;;;;;;15.37;73.08;99163.16;5033865;28;20197;-68
2023/04/30 02:09:10;;;;;;;6.83;5.70;;;;;;;15.39;73.50;99153.03;5033768;28;20221;-68
2023/04/30 02:11:36;;;;;;;8.30;5.80;;;;;;;15.39;74.34;99158.38;5033411;28;20668;-69
2023/04/30 02:14:03;;;;;;;6.27;5.83;;;;;;;15.35;73.83;99161.75;5031580;28;20248;-69
2023/04/30 02:16:31;;;;;;;6.30;4.80;;;;;;;15.34;74.30;99155.59;5033621;28;20251;-69
2023/04/30 02:18:58;;;;;;;8.83;6.10;;;;;;;15.27;73.95;99164.75;5033290;28;20201;-69
2023/04/30 02:21:26;;;;;;;6.30;5.47;;;;;;;15.20;74.55;99162.19;5033348;28;20661;-69
2023/04/30 02:23:52;;;;;;;9.27;5.70;;;;;;;15.16;75.04;99162.91;5033194;28;20550;-69
2023/04/30 02:26:20;;;;;;;6.40;5.83;;;;;;;15.10;75.95;99164.66;5033154;28;20247;-68
2023/04/30 02:28:46;;;;;;;9.73;5.50;;;;;;;15.14;75.99;99171.16;5033088;28;20624;-68
2023/04/30 02:31:13;;;;;;;6.07;5.47;;;;;;;15.12;75.90;99173.25;5033161;28;20665;-68
2023/04/30 02:33:41;;;;;;;8.40;5.50;;;;;;;15.11;76.33;99173.50;5033268;28;20209;-68
2023/04/30 02:36:08;;;;;;;6.87;4.97;;;;;;;15.05;75.99;99167.22;5033287;28;20244;-68
2023/04/30 02:38:35;;;;;;;7.67;6.23;;;;;;;15.00;76.35;99168.94;5033090;28;20212;-66
2023/04/30 02:41:02;;;;;;;5.97;5.53;;;;;;;14.94;77.08;99172.53;5033262;28;20192;-67
2023/04/30 02:43:29;;;;;;;5.30;5.00;;;;;;;14.92;77.42;99159.41;5029326;28;20206;-67
2023/04/30 02:45:56;;;;;;;6.07;5.47;;;;;;;14.96;77.58;99168.56;5012970;28;20662;-67
2023/04/30 02:48:22;;;;;;;8.87;5.07;;;;;;;14.95;77.83;99156.25;5013186;28;20293;-68
2023/04/30 02:50:51;;;;;;;6.03;5.43;;;;;;;14.99;78.07;99159.31;5013316;28;20256;-68
2023/04/30 02:53:17;;;;;;;5.77;5.37;;;;;;;15.06;78.15;99159.97;5012859;28;20244;-68
2023/04/30 02:55:45;;;;;;;6.00;5.30;;;;;;;15.05;78.08;99161.84;5013047;28;20256;-67
2023/04/30 02:58:12;;;;;;;6.30;5.73;;;;;;;15.10;78.56;99170.00;5013053;28;20197;-67
2023/04/30 03:00:39;;;;;;;6.07;5.53;;;;;;;15.12;78.54;99167.88;5013119;28;20202;-68
2023/04/30 03:03:05;;;;;;;5.57;5.17;;;;;;;15.11;78.60;99173.50;5013983;28;20272;-68
2023/04/30 03:05:32;;;;;;;6.40;5.87;;;;;;;15.08;78.92;99176.63;5032497;28;20259;-68
2023/04/30 03:08:00;;;;;;;5.80;5.37;;;;;;;15.00;79.05;99180.44;5032387;28;20657;-68
2023/04/30 03:10:27;;;;;;;6.97;6.40;;;;;;;14.98;79.03;99181.72;5032357;28;20224;-69
2023/04/30 03:12:53;;;;;;;7.77;5.47;;;;;;;14.98;79.12;99181.72;5029313;28;20275;-69
2023/04/30 03:15:20;;;;;;;8.53;6.17;;;;;;;14.92;78.99;99183.50;5020901;28;20270;-69
2023/04/30 03:17:47;;;;;;;6.90;6.30;;;;;;;14.91;78.75;99184.50;5022487;28;20194;-69
2023/04/30 03:20:13;;;;;;;6.83;6.03;;;;;;;14.78;78.49;99184.72;5021372;28;20202;-69
2023/04/30 03:22:40;;;;;;;7.33;6.73;;;;;;;14.73;79.17;99184.63;5022701;28;20194;-69
2023/04/30 03:25:09;;;;;;;7.50;6.90;;;;;;;14.63;79.13;99179.00;5022463;28;20194;-68
2023/04/30 03:27:36;;;;;;;7.30;6.57;;;;;;;14.64;79.37;99193.19;5021124;28;20190;-69
2023/04/30 03:30:03;;;;;;;7.33;6.00;;;;;;;14.61;79.71;99191.78;5022068;28;20282;-68
2023/04/30 03:32:30;;;;;;;6.97;6.50;;;;;;;14.59;79.82;99195.75;5022283;28;20658;-68
2023/04/30 03:34:56;;;;;;;7.47;6.73;;;;;;;14.57;80.01;99201.31;5020731;28;20583;-69
2023/04/30 03:37:23;;;;;;;7.93;7.00;;;;;;;14.51;79.80;99202.25;5022538;28;20189;-68
2023/04/30 03:39:50;;;;;;;7.93;7.27;;;;;;;14.49;80.32;99211.50;5022378;28;20640;-67
2023/04/30 03:42:18;;;;;;;10.10;7.63;;;;;;;14.52;80.99;99213.72;5020389;28;20181;-68
2023/04/30 03:44:44;;;;;;;11.67;8.17;;;;;;;14.52;80.59;99209.22;5020072;28;20260;-68
2023/04/30 03:47:11;;;;;;;8.23;7.37;;;;;;;14.47;80.77;99211.75;5021998;28;20256;-68
2023/04/30 03:49:38;;;;;;;11.63;8.33;;;;;;;14.49;80.56;99216.84;5020793;28;20271;-68
2023/04/30 03:52:06;;;;;;;9.90;7.80;;;;;;;14.49;80.67;99224.84;5022926;28;20193;-69
2023/04/30 03:54:33;;;;;;;8.60;7.80;;;;;;;14.51;81.67;99226.28;5021720;28;20190;-68
2023/04/30 03:57:02;;;;;;;14.03;7.70;;;;;;;14.59;80.83;99228.63;5021088;28;20193;-68
2023/04/30 03:59:30;;;;;;;8.70;7.87;;;;;;;14.60;81.27;99222.25;5015771;28;20268;-68
2023/04/30 04:01:57;;;;;;;11.13;7.67;;;;;;;14.67;80.98;99228.28;5020956;28;20243;-69
2023/04/30 04:04:24;;;;;;;11.03;7.53;;;;;;;14.73;80.65;99224.72;5017068;28;20222;-68
2023/04/30 04:06:51;;;;;;;8.07;7.30;;;;;;;14.82;80.85;99230.53;5022091;28;20202;-68
2023/04/30 04:09:17;;;;;;;8.30;7.50;;;;;;;14.85;80.72;99230.91;5020116;28;20772;-68
2023/04/30 04:11:44;;;;;;;9.27;7.83;;;;;;;14.73;80.84;99221.22;5020334;28;20693;-68
2023/04/30 04:14:10;;;;;;;8.20;7.40;;;;;;;14.76;81.34;99234.13;5022248;28;20618;-68
2023/04/30 04:16:38;;;;;;;8.57;7.73;;;;;;;14.69;81.52;99241.44;5020493;28;20241;-67
2023/04/30 04:19:05;;;;;;;8.50;7.67;;;;;;;14.73;81.55;99243.44;5020165;28;20248;-67
2023/04/30 04:21:32;;;;;;;8.50;7.63;;;;;;;14.74;81.52;99245.06;5022093;28;20667;-67
2023/04/30 04:23:59;;;;;;;8.63;7.70;;;;;;;14.82;80.80;99251.91;5012358;28;20189;-67
2023/04/30 04:26:27;;;;;;;9.30;7.87;;;;;;;14.81;81.67;99243.09;5021387;28;20190;-68
2023/04/30 04:28:54;;;;;;;13.33;7.67;;;;;;;14.78;82.23;99235.53;5014178;28;20229;-67
2023/04/30 04:31:21;;;;;;;8.20;7.50;;;;;;;14.79;82.64;99236.34;5021232;28;20221;-69
2023/04/30 04:33:49;;;;;;;10.37;8.40;;;;;;;14.80;81.81;99248.69;5020060;28;20739;-70
2023/04/30 04:36:16;;;;;;;8.53;8.00;;;;;;;14.79;82.04;99253.19;5021991;28;20185;-68
2023/04/30 04:38:43;;;;;;;9.10;8.40;;;;;;;14.82;82.51;99250.06;5021768;28;20194;-68
2023/04/30 04:41:09;;;;;;;10.50;8.57;;;;;;;14.85;81.91;99246.13;5020050;28;20190;-68
2023/04/30 04:43:36;;;;;;;9.00;8.30;;;;;;;14.89;82.18;99248.13;5019097;28;20228;-68
2023/04/30 04:46:03;;;;;;;11.60;8.37;;;;;;;14.94;82.12;99242.91;5020966;28;20198;-68
2023/04/30 04:48:29;;;;;;;9.07;8.20;;;;;;;14.98;81.83;99246.75;5022322;28;20189;-68
2023/04/30 04:50:57;;;;;;;10.30;9.27;;;;;;;15.02;81.21;99245.22;5020428;28;20221;-68
2023/04/30 04:53:24;;;;;;;10.47;9.43;;;;;;;15.09;81.77;99248.63;5020853;28;20256;-68
2023/04/30 04:55:51;;;;;;;10.33;9.37;;;;;;;15.09;82.20;99245.94;5022968;28;20189;-68
2023/04/30 04:58:17;;;;;;;12.67;9.63;;;;;;;15.31;82.40;99252.38;5032945;28;20562;-69
2023/04/30 05:00:45;;;;;;;9.33;8.43;;;;;;;15.49;81.75;99249.59;5034907;28;20263;-69
2023/04/30 05:03:13;;;;;;;24.43;9.10;;;;;;;15.69;80.89;99260.75;5032436;28;20572;-69
2023/04/30 05:05:39;;;;;;;9.17;8.37;;;;;;;16.09;79.38;99254.66;5014841;28;20669;-72
2023/04/30 05:08:07;;;;;;;8.83;7.93;;;;;;;17.25;75.53;99261.09;5015396;28;20225;-71
2023/04/30 05:10:35;;;;;;;8.30;7.50;;;;;;;18.38;70.48;99267.59;5014645;28;20222;-69
2023/04/30 05:13:01;;;;;;;6.33;5.60;;;;;;;19.50;66.58;99274.59;5015142;28;20645;-67
2023/04/30 05:15:28;;;;;;;8.93;4.57;;;;;;;21.13;61.81;99287.44;5021466;28;20204;-65
2023/04/30 05:17:55;;;;;;;5.20;4.80;;;;;;;22.80;55.19;99307.41;5034741;28;20193;-65
2023/04/30 05:20:21;;;;;;;7.53;5.53;;;;;;;24.13;49.46;99292.22;5034502;28;20304;-67
2023/04/30 05:22:48;;;;;;;6.20;4.97;;;;;;;25.15;46.69;99287.09;5034112;28;20198;-65
2023/04/30 05:25:16;;;;;;;7.37;6.77;;;;;;;25.77;42.52;99283.88;5034619;28;20198;-65
2023/04/30 05:27:43;;;;;;;5.57;5.13;;;;;;;26.21;42.09;99276.00;5034648;28;20202;-65
2023/04/30 05:30:11;;;;;;;5.40;5.00;;;;;;;26.52;41.67;99285.97;5034569;28;20235;-66
2023/04/30 05:32:37;;;;;;;6.13;5.50;;;;;;;26.88;39.41;99272.41;5034233;28;20201;-66
2023/04/30 05:35:05;;;;;;;5.77;5.40;;;;;;;27.38;38.32;99282.13;5034388;28;20256;-65
2023/04/30 05:37:31;;;;;;;5.90;5.37;;;;;;;27.06;36.47;99285.06;5034444;28;20189;-65
2023/04/30 05:39:58;;;;;;;6.97;6.47;;;;;;;26.36;36.10;99283.84;5033917;28;20201;-68
2023/04/30 05:42:26;;;;;;;6.27;5.73;;;;;;;25.87;37.23;99278.25;5031418;28;20232;-64
2023/04/30 05:44:54;;;;;;;7.70;6.23;;;;;;;25.46;38.41;99280.06;5034238;28;20200;-66
2023/04/30 05:47:21;;;;;;;7.30;6.70;;;;;;;25.54;37.82;99274.78;5030250;28;20233;-67
2023/04/30 05:49:47;;;;;;;5.73;5.33;;;;;;;25.21;38.24;99280.47;5023748;28;20278;-65
2023/04/30 05:52:16;;;;;;;7.73;5.40;;;;;;;25.34;37.49;99279.72;5032282;28;20575;-66
2023/04/30 05:54:43;;;;;;;4.77;4.03;;;;;;;26.32;38.23;99275.50;5034003;28;20224;-66
2023/04/30 05:57:09;;;;;;;14.67;4.70;;;;;;;26.94;36.92;99268.41;5034041;28;20266;-65
2023/04/30 05:59:38;;;;;;;5.53;5.03;;;;;;;27.73;34.23;99286.69;5033819;28;20263;-64
2023/04/30 06:02:04;;;;;;;6.30;5.70;;;;;;;27.77;33.98;99287.69;5033973;28;20280;-65
2023/04/30 06:04:31;;;;;;;6.00;5.50;;;;;;;27.92;33.98;99290.03;5020309;28;20194;-65
2023/04/30 06:06:58;;;;;;;6.17;5.57;;;;;;;27.60;34.32;99291.09;5013696;28;20234;-65
2023/04/30 06:09:25;;;;;;;6.23;5.73;;;;;;;27.04;35.95;99285.38;5020472;28;20221;-67
2023/04/30 06:11:51;;;;;;;8.47;4.93;;;;;;;26.32;37.21;99285.56;5020374;28;20190;-67
2023/04/30 06:14:20;;;;;;;6.03;5.63;;;;;;;26.41;37.13;99284.56;5025226;28;20202;-73
2023/04/30 06:16:49;;;;;;;5.80;5.20;;;;;;;26.03;39.18;99288.59;5029849;28;20197;-70
2023/04/30 06:19:15;;;;;;;6.27;5.73;;;;;;;25.99;38.56;99281.31;5029599;28;20755;-69
2023/04/30 06:21:43;;;;;;;5.87;5.47;;;;;;;25.99;38.56;99284.88;5029298;28;20189;-70
2023/04/30 06:24:09;;;;;;;6.23;5.23;;;;;;;25.86;38.29;99279.38;5026801;28;20279;-70
2023/04/30 06:26:37;;;;;;;5.63;5.00;;;;;;;26.03;38.42;99283.16;5028812;28;20197;-71
2023/04/30 06:29:03;;;;;;;5.80;5.30;;;;;;;26.18;37.62;99285.59;5027375;28;20221;-71
2023/04/30 06:31:30;;;;;;;6.13;5.60;;;;;;;26.07;38.71;99283.34;5026853;28;20481;-71
2023/04/30 06:33:58;;;;;;;5.60;5.20;;;;;;;25.89;38.84;99282.28;5028910;28;20193;-73
2023/04/30 06:36:25;;;;;;;4.93;4.63;;;;;;;25.68;39.01;99278.31;5028113;28;20193;-71
2023/04/30 06:38:51;;;;;;;5.00;4.47;;;;;;;25.65;39.43;99280.84;5027925;28;20610;-70
2023/04/30 06:41:18;;;;;;;5.00;4.60;;;;;;;25.75;38.11;99275.19;5028961;28;20629;-71
2023/04/30 06:43:45;;;;;;;10.03;5.70;;;;;;;26.04;37.06;99281.25;5028002;28;20267;-70
2023/04/30 06:46:13;;;;;;;4.60;4.20;;;;;;;26.04;37.10;99283.97;5029002;28;20239;-70
2023/04/30 06:48:40;;;;;;;4.80;4.43;;;;;;;25.86;36.76;99273.91;5029056;28;20198;-71
2023/04/30 06:51:09;;;;;;;4.57;4.23;;;;;;;25.52;37.68;99279.69;5028508;28;20301;-70
2023/04/30 06:53:35;;;;;;;4.43;4.13;;;;;;;25.47;37.17;99279.00;5021088;28;20255;-71
2023/04/30 06:56:03;;;;;;;4.37;4.07;;;;;;;25.35;37.70;99274.00;5029449;28;20201;-70
2023/04/30 06:58:29;;;;;;;4.80;4.40;;;;;;;25.19;39.07;99271.81;5029266;28;20204;-71
2023/04/30 07:00:57;;;;;;;6.13;4.33;;;;;;;25.32;37.72;99271.06;5029318;28;20595;-70
2023/04/30 07:03:23;;;;;;;4.13;3.90;;;;;;;25.27;37.37;99279.28;5025646;28;20275;-70
2023/04/30 07:05:52;;;;;;;8.30;3.67;;;;;;;25.04;37.80;99264.69;5026383;28;20255;-70
2023/04/30 07:08:21;;;;;;;29.27;6.23;;;;;;;25.32;37.38;99271.06;5021819;28;20198;-70
2023/04/30 07:10:47;;;;;;;5.77;4.53;;;;;;;25.31;36.70;99267.53;5028081;28;20225;-70
2023/04/30 07:13:15;;;;;;;4.27;3.97;;;;;;;24.96;37.72;99262.66;5021127;28;20204;-71
2023/04/30 07:15:42;;;;;;;4.73;4.23;;;;;;;24.99;38.06;99262.84;5021315;28;20619;-70
2023/04/30 07:18:08;;;;;;;4.03;3.80;;;;;;;24.97;39.40;99258.81;5028571;28;20262;-69
2023/04/30 07:20:35;;;;;;;5.27;4.83;;;;;;;25.43;38.51;99257.00;5026633;28;20205;-70
2023/04/30 07:23:02;;;;;;;5.43;4.77;;;;;;;26.01;37.20;99260.84;5028486;28;20193;-70
2023/04/30 07:25:30;;;;;;;5.87;4.33;;;;;;;26.17;36.83;99247.75;5027760;28;20219;-70
2023/04/30 07:27:57;;;;;;;4.27;3.90;;;;;;;26.39;35.26;99264.19;5028323;28;20201;-71
2023/04/30 07:30:23;;;;;;;4.50;4.10;;;;;;;26.17;35.35;99261.38;5028010;28;20205;-75
2023/04/30 07:32:50;;;;;;;3.97;3.67;;;;;;;25.89;37.27;99262.44;5027540;28;20730;-73
2023/04/30 07:35:17;;;;;;;4.27;3.97;;;;;;;25.86;36.20;99260.31;5028412;28;20201;-71
2023/04/30 07:37:44;;;;;;;4.60;4.10;;;;;;;25.89;35.89;99263.22;5028405;28;20300;-71
2023/04/30 07:40:12;;;;;;;4.03;3.73;;;;;;;26.07;35.38;99259.66;5028328;28;20224;-71
2023/04/30 07:42:41;;;;;;;3.60;3.40;;;;;;;26.00;36.79;99255.75;5026113;28;20197;-72
2023/04/30 07:45:09;;;;;;;4.10;3.80;;;;;;;26.00;34.93;99255.75;5028345;28;20197;-71
2023/04/30 07:47:35;;;;;;;9.40;4.33;;;;;;;25.83;34.41;99256.28;5028078;28;20193;-71
2023/04/30 07:50:03;;;;;;;5.50;4.13;;;;;;;25.67;34.95;99257.66;5027128;28;20220;-72
2023/04/30 07:52:29;;;;;;;4.37;3.97;;;;;;;25.81;35.24;99263.97;5026646;28;20279;-71
2023/04/30 07:54:56;;;;;;;3.70;3.50;;;;;;;25.60;34.74;99256.44;5020024;28;20735;-70
2023/04/30 07:57:25;;;;;;;3.53;3.23;;;;;;;25.15;35.08;99259.91;5027479;28;20263;-70
2023/04/30 07:59:53;;;;;;;3.63;3.43;;;;;;;25.47;35.42;99249.84;5015001;28;20197;-71
2023/04/30 08:02:20;;;;;;;7.00;3.93;;;;;;;25.94;35.26;99255.03;5027847;28;20220;-71
2023/04/30 08:04:47;;;;;;;6.77;3.17;;;;;;;25.82;34.36;99251.13;5027821;28;20200;-71
2023/04/30 08:07:14;;;;;;;4.27;3.73;;;;;;;25.22;34.98;99244.81;5027706;28;20204;-71
2023/04/30 08:09:41;;;;;;;19.57;4.63;;;;;;;25.56;35.11;99247.28;5027967;28;20661;-71
2023/04/30 08:12:09;;;;;;;6.20;3.73;;;;;;;25.73;35.21;99248.31;5024430;28;20212;-74
2023/04/30 08:14:35;;;;;;;5.80;3.50;;;;;;;26.21;33.23;99243.31;5028097;28;20193;-72
2023/04/30 08:17:03;;;;;;;3.53;3.23;;;;;;;26.58;32.66;99246.63;5027659;28;20198;-71
2023/04/30 08:19:31;;;;;;;3.70;3.30;;;;;;;26.59;31.88;99250.16;5027837;28;20267;-72
2023/04/30 08:21:59;;;;;;;3.70;3.40;;;;;;;26.35;33.15;99246.84;5025155;28;20288;-71
2023/04/30 08:24:25;;;;;;;4.50;3.23;;;;;;;26.72;31.46;99238.41;5028098;28;20200;-72
2023/04/30 08:26:52;;;;;;;3.20;3.00;;;;;;;26.29;31.91;99237.16;5029209;28;20260;-71
2023/04/30 08:29:19;;;;;;;5.23;3.57;;;;;;;25.81;33.17;99235.91;5030828;28;20237;-71
2023/04/30 08:31:46;;;;;;;4.10;3.83;;;;;;;25.68;33.79;99226.63;5033541;28;20299;-72
2023/04/30 08:34:14;;;;;;;3.73;3.43;;;;;;;25.47;34.29;99235.47;5035438;28;20267;-71
2023/04/30 08:36:40;;;;;;;3.10;2.90;;;;;;;25.69;33.78;99233.69;5035122;28;20209;-70
2023/04/30 08:39:07;;;;;;;3.03;2.87;;;;;;;26.17;32.13;99234.16;5035277;28;20193;-71
2023/04/30 08:41:36;;;;;;;7.10;3.33;;;;;;;26.47;32.36;99233.50;5034527;28;20197;-71
2023/04/30 08:44:03;;;;;;;2.93;2.73;;;;;;;26.77;30.91;99233.66;5014686;28;20198;-71
2023/04/30 08:46:32;;;;;;;8.07;3.23;;;;;;;27.21;31.07;99227.44;5015329;28;20301;-71
2023/04/30 08:48:59;;;;;;;6.40;3.47;;;;;;;27.22;31.34;99227.16;5015186;28;20198;-72
2023/04/30 08:51:30;;;;;;;3.10;2.90;;;;;;;26.85;30.67;99237.56;5014691;28;20276;-70
2023/04/30 08:53:57;;;;;;;3.30;3.07;;;;;;;26.91;30.10;99212.59;5015153;28;20186;-72
2023/04/30 08:56:24;;;;;;;3.10;2.90;;;;;;;27.17;28.85;99221.78;5015000;28;20276;-70
2023/04/30 08:58:51;;;;;;;4.23;2.90;;;;;;;27.23;29.66;99223.28;5015114;28;20285;-70
2023/04/30 09:01:19;;;;;;;2.80;2.53;;;;;;;26.81;28.75;99222.94;5014511;28;20689;-72
2023/04/30 09:03:46;;;;;;;3.63;2.80;;;;;;;26.73;29.99;99224.47;5022168;28;20196;-71
2023/04/30 09:06:16;;;;;;;3.20;2.90;;;;;;;26.48;30.27;99208.69;5035105;28;20280;-71
2023/04/30 09:08:46;;;;;;;3.83;3.03;;;;;;;26.39;30.77;99205.06;5034787;28;20284;-71
2023/04/30 09:11:24;;;;;;;10.00;3.20;;;;;;;26.35;30.58;99204.06;5034383;28;20573;-71
2023/04/30 09:13:52;;;;;;;5.40;2.70;;;;;;;26.28;29.08;99202.84;5032172;28;20682;-71
2023/04/30 09:16:19;;;;;;;3.33;2.57;;;;;;;26.15;29.08;99209.13;5034679;28;20232;-71
2023/04/30 09:18:47;;;;;;;2.73;2.40;;;;;;;26.26;30.16;99202.38;5034230;28;20692;-71
2023/04/30 09:21:14;;;;;;;2.93;2.70;;;;;;;26.56;30.52;99205.22;5033208;28;20197;-71
2023/04/30 09:23:56;;;;;;;2.80;2.40;;;;;;;26.91;27.32;99200.91;5034054;28;20193;-71
2023/04/30 09:26:28;;;;;;;2.10;2.00;;;;;;;26.72;26.68;99202.97;5034136;28;20181;-71
2023/04/30 09:28:56;;;;;;;2.60;2.40;;;;;;;26.93;27.46;99209.56;5034208;28;20724;-70
2023/04/30 09:31:24;;;;;;;3.37;2.87;;;;;;;27.11;27.38;99203.13;5034371;28;20719;-71
2023/04/30 09:33:52;;;;;;;2.50;2.30;;;;;;;27.12;26.36;99196.56;5034059;28;20747;-70
2023/04/30 09:36:19;;;;;;;2.87;2.57;;;;;;;27.48;27.33;99184.44;5034179;28;20189;-70
2023/04/30 09:38:45;;;;;;;5.77;2.67;;;;;;;27.99;27.96;99189.34;5034286;28;20193;-70
2023/04/30 09:41:24;;;;;;;2.60;2.40;;;;;;;28.35;27.54;99184.44;5033943;28;20197;-69
2023/04/30 09:43:51;;;;;;;2.90;2.70;;;;;;;28.59;27.62;99171.16;5014891;28;20252;-70
2023/04/30 09:46:19;;;;;;;2.40;2.30;;;;;;;28.83;26.36;99177.72;5014006;28;20666;-70
2023/04/30 09:48:46;;;;;;;4.53;2.57;;;;;;;29.19;25.38;99180.13;5014228;28;20201;-69
2023/04/30 09:51:13;;;;;;;2.40;2.30;;;;;;;28.94;25.89;99167.25;5014195;28;20226;-70
2023/04/30 09:53:42;;;;;;;5.70;2.40;;;;;;;28.90;24.87;99180.78;5013837;28;20284;-70
2023/04/30 09:56:11;;;;;;;2.60;2.40;;;;;;;28.57;24.40;99167.94;5014301;28;20661;-70
2023/04/30 09:58:45;;;;;;;2.93;2.20;;;;;;;28.16;24.94;99162.06;5014105;28;20194;-69
2023/04/30 10:01:12;;;;;;;6.00;2.70;;;;;;;27.60;25.88;99159.31;5014067;28;20194;-70
2023/04/30 10:03:40;;;;;;;6.30;3.20;;;;;;;26.98;27.54;99165.81;5019574;28;20633;-70
2023/04/30 10:06:08;;;;;;;6.07;2.50;;;;;;;26.97;26.89;99161.47;5033792;28;20196;-71
2023/04/30 10:08:40;;;;;;;2.90;2.77;;;;;;;27.09;27.73;99165.25;5033489;28;20255;-70
2023/04/30 10:11:08;;;;;;;3.07;2.40;;;;;;;27.26;27.63;99168.13;5033826;28;20206;-70
2023/04/30 10:13:47;;;;;;;3.57;2.37;;;;;;;27.34;27.02;99166.53;5017717;28;20719;-70
2023/04/30 10:16:22;;;;;;;3.80;3.03;;;;;;;27.12;27.63;99152.94;5013699;28;20256;-71
2023/04/30 10:18:51;;;;;;;6.57;3.13;;;;;;;27.08;28.55;99146.47;5013866;28;20248;-71
2023/04/30 10:21:20;;;;;;;3.83;2.20;;;;;;;26.76;27.42;99149.47;5013747;28;20264;-71
2023/04/30 10:23:48;;;;;;;2.47;2.27;;;;;;;26.56;28.23;99149.91;5013710;28;20282;-70
2023/04/30 10:26:16;;;;;;;3.67;2.50;;;;;;;26.51;27.72;99148.13;5013423;28;20252;-71
2023/04/30 10:28:45;;;;;;;6.77;3.23;;;;;;;26.59;28.39;99150.16;5013286;28;20230;-70
2023/04/30 10:31:13;;;;;;;2.30;2.20;;;;;;;26.65;27.81;99148.09;5013296;28;20736;-70
2023/04/30 10:33:48;;;;;;;2.57;2.47;;;;;;;26.48;28.87;99142.47;5013392;28;20232;-70
2023/04/30 10:36:22;;;;;;;3.00;2.80;;;;;;;26.55;28.63;99142.84;5013395;28;20625;-71
2023/04/30 10:38:49;;;;;;;5.93;2.57;;;;;;;26.66;28.88;99134.16;5013649;28;20252;-71
2023/04/30 10:41:19;;;;;;;3.40;2.80;;;;;;;26.54;28.79;99133.09;5013163;28;20738;-71
2023/04/30 10:43:48;;;;;;;5.00;2.67;;;;;;;26.40;29.37;99130.41;5027497;28;20665;-71
2023/04/30 10:46:22;;;;;;;2.83;2.20;;;;;;;26.50;29.74;99134.81;5032959;28;20195;-71
2023/04/30 10:48:49;;;;;;;2.50;2.40;;;;;;;26.53;29.02;99135.00;5033233;28;20269;-70
2023/04/30 10:51:16;;;;;;;3.00;2.90;;;;;;;26.23;29.68;99134.88;5032729;28;20279;-71
2023/04/30 10:53:44;;;;;;;3.10;2.80;;;;;;;25.99;30.11;99134.31;5032548;28;20653;-71
2023/04/30 10:56:12;;;;;;;4.93;3.00;;;;;;;25.77;30.64;99135.03;5032706;28;20200;-70
2023/04/30 10:58:40;;;;;;;3.20;2.63;;;;;;;25.81;31.14;99137.94;5032884;28;20297;-71
2023/04/30 11:01:10;;;;;;;5.40;3.13;;;;;;;25.75;31.13;99133.69;5030644;28;20201;-72
2023/04/30 11:03:37;;;;;;;3.47;3.17;;;;;;;25.76;30.84;99124.44;5018582;28;20208;-70
2023/04/30 11:06:12;;;;;;;4.77;2.87;;;;;;;25.88;32.64;99116.56;5032875;28;20193;-71
2023/04/30 11:08:42;;;;;;;2.97;2.60;;;;;;;26.00;32.68;99119.63;5032388;28;20193;-70
2023/04/30 11:11:10;;;;;;;2.50;2.40;;;;;;;25.96;31.14;99113.97;5032736;28;20275;-70
2023/04/30 11:13:40;;;;;;;2.83;2.50;;;;;;;25.90;31.03;99109.72;5032336;28;20197;-70
2023/04/30 11:16:09;;;;;;;3.07;2.73;;;;;;;25.65;31.45;99118.41;5032341;28;20284;-71
2023/04/30 11:18:41;;;;;;;3.23;3.03;;;;;;;25.50;32.03;99115.97;5032507;28;20255;-71
2023/04/30 11:21:09;;;;;;;4.40;2.93;;;;;;;25.42;32.90;99111.25;5032229;28;20259;-71
2023/04/30 11:23:35;;;;;;;20.23;4.10;;;;;;;25.44;38.19;99111.72;5032168;28;20198;-71
2023/04/30 11:26:02;;;;;;;3.17;2.87;;;;;;;25.25;34.84;99102.03;5032577;28;20193;-70
2023/04/30 11:28:30;;;;;;;4.10;3.77;;;;;;;25.00;39.44;99098.66;5031933;28;20231;-70
2023/04/30 11:30:58;;;;;;;3.43;3.23;;;;;;;24.89;40.67;99093.72;5030810;28;20392;-72
2023/04/30 11:33:28;;;;;;;3.73;2.67;;;;;;;24.83;38.53;99095.72;5030588;28;20279;-70
2023/04/30 11:35:56;;;;;;;2.60;2.40;;;;;;;24.85;37.88;99092.69;5032545;28;20243;-70